Terminal Aerodrome Forecast
Issued by NWS

Home | Current Version | Previous Version | Text Only | Print | Product List | Glossary On
Versions: 1 2 3 4 5 6 7 8 9 10 11 12 13 14 15 16 17 18
389
FTUS42 KMLB 232322
TAFSUA
TAF
KSUA 232322Z 2400/2424 07015G22KT P6SM VCSH SCT020 BKN035
      TEMPO 2400/2403 6SM -SHRA BKN025 BKN030
     FM240300 08013KT P6SM FEW030 BKN100
     FM241300 09017G25KT P6SM SCT030 BKN120=

USA.gov is the U.S. government's official web portal to all federal, state and local government web resources and services.